createdAt,value
2023-05-08T00:01:12.206Z,94805.75
2023-05-08T00:03:14.017Z,94805.09
2023-05-08T00:05:15.974Z,94802.66
2023-05-08T00:07:17.576Z,94801.84
2023-05-08T00:09:20.968Z,94800.56
2023-05-08T00:11:22.638Z,94804.94
2023-05-08T00:13:24.463Z,94801.84
2023-05-08T00:15:26.169Z,94809.91
2023-05-08T00:17:28.064Z,94806.72
2023-05-08T00:19:29.706Z,94806.94
2023-05-08T00:21:31.366Z,94806.94
2023-05-08T00:23:33.571Z,94808.38
2023-05-08T00:25:35.201Z,94813.66
2023-05-08T00:27:36.780Z,94815.66
2023-05-08T00:29:40.271Z,94818.94
2023-05-08T00:31:41.972Z,94814.78
2023-05-08T00:33:43.599Z,94813.53
2023-05-08T00:35:45.283Z,94816.97
2023-05-08T00:37:46.855Z,94813.53
2023-05-08T00:39:48.439Z,94809.41
2023-05-08T00:41:50.036Z,94812.59
2023-05-08T00:43:51.684Z,94812.59
2023-05-08T00:45:54.782Z,94812.44
2023-05-08T00:47:56.431Z,94810.97
2023-05-08T00:49:59.289Z,94808.34
2023-05-08T00:52:01.162Z,94811.16
2023-05-08T00:54:03.176Z,94821.09
2023-05-08T00:56:05.747Z,94814.34
2023-05-08T00:58:07.312Z,94825.09
2023-05-08T01:00:10.034Z,94821.47
2023-05-08T01:02:12.060Z,94819.81
2023-05-08T01:04:14.389Z,94824.47
2023-05-08T01:06:16.008Z,94826.59
2023-05-08T01:08:17.663Z,94818.69
2023-05-08T01:10:19.229Z,94826.38
2023-05-08T01:12:27.237Z,94831.88
2023-05-08T01:15:02.407Z,94828.03
2023-05-08T01:17:11.708Z,94834.75
2023-05-08T01:19:41.092Z,94827.66
2023-05-08T01:21:57.365Z,94827.88
2023-05-08T01:24:26.840Z,94828.22
2023-05-08T01:26:43.033Z,94827.94
2023-05-08T01:29:26.355Z,94825.03
2023-05-08T01:31:36.660Z,94824.03
2023-05-08T01:34:12.298Z,94827.09
2023-05-08T01:36:34.533Z,94825.41
2023-05-08T01:39:00.582Z,94822.50
2023-05-08T01:41:14.625Z,94816.22
2023-05-08T01:43:26.897Z,94814.59
2023-05-08T01:45:37.535Z,94813.66
2023-05-08T01:47:39.579Z,94814.69
2023-05-08T01:49:46.643Z,94812.69
2023-05-08T01:52:00.991Z,94810.69
2023-05-08T01:56:14.040Z,94815.94
2023-05-08T01:58:16.475Z,94818.75
2023-05-08T02:00:20.482Z,94822.22
2023-05-08T02:02:22.718Z,94816.28
2023-05-08T02:04:25.810Z,94810.38
2023-05-08T02:06:28.507Z,94811.19
2023-05-08T02:08:32.038Z,94812.22
2023-05-08T02:10:33.829Z,94814.84
2023-05-08T02:12:37.387Z,94806.94
2023-05-08T02:14:40.418Z,94817.84
2023-05-08T02:16:43.077Z,94820.28
2023-05-08T02:18:52.392Z,94811.75
2023-05-08T02:20:54.894Z,94819.56
2023-05-08T02:22:57.095Z,94817.50
2023-05-08T02:24:58.903Z,94819.72
2023-05-08T02:27:00.897Z,94815.78
2023-05-08T02:29:03.459Z,94814.31
2023-05-08T02:31:05.404Z,94816.94
2023-05-08T02:33:08.578Z,94821.78
2023-05-08T02:35:13.371Z,94820.31
2023-05-08T02:37:15.601Z,94816.84
2023-05-08T02:39:18.223Z,94813.06
2023-05-08T02:41:22.333Z,94822.22
2023-05-08T02:43:24.421Z,94825.03
2023-05-08T02:45:29.392Z,94823.06
2023-05-08T02:47:58.535Z,94826.88
2023-05-08T02:50:09.981Z,94820.59
2023-05-08T02:52:23.117Z,94822.75
2023-05-08T02:54:38.664Z,94823.56
2023-05-08T02:57:11.051Z,94826.97
2023-05-08T02:59:17.903Z,94832.41
2023-05-08T03:01:29.146Z,94825.72
2023-05-08T03:03:45.688Z,94826.91
2023-05-08T03:06:10.803Z,94826.63
2023-05-08T03:08:16.138Z,94829.91
2023-05-08T03:10:19.355Z,94829.38
2023-05-08T03:12:23.481Z,94830.81
2023-05-08T03:14:26.726Z,94829.41
2023-05-08T03:16:32.409Z,94824.56
2023-05-08T03:18:37.144Z,94829.78
2023-05-08T03:20:40.875Z,94827.91
2023-05-08T03:22:43.935Z,94831.31
2023-05-08T03:24:46.792Z,94836.69
2023-05-08T03:26:48.464Z,94838.78
2023-05-08T03:28:50.678Z,94832.34
2023-05-08T03:30:53.284Z,94835.25
2023-05-08T03:32:55.290Z,94835.72
2023-05-08T03:34:59.024Z,94844.91
2023-05-08T03:37:00.700Z,94843.09
2023-05-08T03:39:02.293Z,94846.38
2023-05-08T03:41:04.430Z,94839.31
2023-05-08T03:43:10.516Z,94836.38
2023-05-08T03:45:13.581Z,94833.28
2023-05-08T03:47:16.770Z,94842.75
2023-05-08T03:49:18.939Z,94837.44
2023-05-08T03:51:21.366Z,94837.06
2023-05-08T03:53:23.318Z,94844.03
2023-05-08T03:55:25.027Z,94840.28
2023-05-08T03:57:28.240Z,94849.06
2023-05-08T03:59:39.614Z,94843.72
2023-05-08T04:01:55.306Z,94839.13
2023-05-08T04:04:04.380Z,94852.44
2023-05-08T04:06:18.591Z,94852.94
2023-05-08T04:08:21.580Z,94856.84
2023-05-08T04:10:25.050Z,94849.53
2023-05-08T04:12:59.449Z,94845.94
2023-05-08T04:15:05.360Z,94854.88
2023-05-08T04:17:10.072Z,94854.00
2023-05-08T04:19:15.942Z,94853.94
2023-05-08T04:21:23.507Z,94855.03
2023-05-08T04:23:25.599Z,94859.94
2023-05-08T04:25:28.068Z,94858.22
2023-05-08T04:27:30.464Z,94865.59
2023-05-08T04:29:33.006Z,94870.50
2023-05-08T04:31:35.219Z,94869.84
2023-05-08T04:33:36.844Z,94867.59
2023-05-08T04:35:38.490Z,94863.22
2023-05-08T04:37:41.646Z,94864.78
2023-05-08T04:39:43.850Z,94859.78
2023-05-08T04:41:45.600Z,94861.31
2023-05-08T04:43:47.472Z,94853.69
2023-05-08T04:45:49.103Z,94858.41
2023-05-08T04:47:50.851Z,94857.41
2023-05-08T04:49:52.558Z,94854.84
2023-05-08T04:51:54.106Z,94851.22
2023-05-08T04:53:55.697Z,94848.19
2023-05-08T04:55:58.707Z,94849.72
2023-05-08T04:58:00.396Z,94844.06
2023-05-08T05:00:02.047Z,94848.47
2023-05-08T05:02:06.077Z,94843.47
2023-05-08T05:04:08.051Z,94843.47
2023-05-08T05:06:09.736Z,94846.56
2023-05-08T05:08:11.327Z,94844.19
2023-05-08T05:10:13.015Z,94844.06
2023-05-08T05:12:14.646Z,94835.84
2023-05-08T05:14:16.311Z,94836.53
2023-05-08T05:16:17.952Z,94839.47
2023-05-08T05:18:20.006Z,94839.94
2023-05-08T05:20:21.585Z,94840.66
2023-05-08T05:22:23.423Z,94835.22
2023-05-08T05:24:25.065Z,94832.66
2023-05-08T05:26:26.731Z,94837.78
2023-05-08T05:28:28.304Z,94840.59
2023-05-08T05:30:30.004Z,94843.34
2023-05-08T05:32:31.666Z,94845.06
2023-05-08T05:34:33.246Z,94840.78
2023-05-08T05:36:34.799Z,94843.00
2023-05-08T05:38:36.784Z,94834.41
2023-05-08T05:40:38.392Z,94839.69
2023-05-08T05:42:39.975Z,94837.75
2023-05-08T05:44:44.796Z,94836.81
2023-05-08T05:46:46.439Z,94841.19
2023-05-08T05:48:48.057Z,94838.72
2023-05-08T05:50:49.690Z,94842.69
2023-05-08T05:52:51.321Z,94835.38
2023-05-08T05:54:52.930Z,94835.69
2023-05-08T05:56:55.027Z,94831.91
2023-05-08T05:58:56.679Z,94829.50
2023-05-08T06:01:01.054Z,94829.69
2023-05-08T06:03:03.266Z,94823.97
2023-05-08T06:05:05.281Z,94827.97
2023-05-08T06:07:06.829Z,94822.41
2023-05-08T06:09:08.497Z,94824.56
2023-05-08T06:11:10.205Z,94819.09
2023-05-08T06:13:11.821Z,94824.47
2023-05-08T06:15:15.202Z,94824.38
2023-05-08T06:17:17.535Z,94814.94
2023-05-08T06:19:19.132Z,94815.66
2023-05-08T06:21:20.809Z,94821.66
2023-05-08T06:23:22.356Z,94814.97
2023-05-08T06:25:24.279Z,94815.19
2023-05-08T06:27:26.426Z,94809.97
2023-05-08T06:29:28.025Z,94807.97
2023-05-08T06:31:29.668Z,94815.34
2023-05-08T06:33:31.614Z,94817.59
2023-05-08T06:35:33.284Z,94823.91
2023-05-08T06:37:34.906Z,94828.31
2023-05-08T06:39:36.666Z,94823.03
2023-05-08T06:41:38.446Z,94831.56
2023-05-08T06:43:40.009Z,94823.53
2023-05-08T06:45:43.428Z,94828.78
2023-05-08T06:47:45.110Z,94817.78
2023-05-08T06:49:46.726Z,94819.59
2023-05-08T06:51:48.258Z,94816.06
2023-05-08T06:53:49.812Z,94823.03
2023-05-08T06:55:51.713Z,94825.13
2023-05-08T06:57:53.269Z,94816.41
2023-05-08T06:59:54.937Z,94823.75
2023-05-08T07:01:56.575Z,94822.44
2023-05-08T07:03:58.282Z,94827.44
2023-05-08T07:05:59.875Z,94833.38
2023-05-08T07:08:01.496Z,94833.00
2023-05-08T07:10:04.027Z,94832.25
2023-05-08T07:12:06.378Z,94834.41
2023-05-08T07:14:08.052Z,94834.91
2023-05-08T07:16:11.036Z,94830.00
2023-05-08T07:18:12.751Z,94840.13
2023-05-08T07:20:14.411Z,94838.31
2023-05-08T07:22:16.439Z,94828.28
2023-05-08T07:24:18.051Z,94833.94
2023-05-08T07:26:19.647Z,94829.28
2023-05-08T07:28:21.257Z,94827.69
2023-05-08T07:30:22.908Z,94830.88
2023-05-08T07:32:25.016Z,94826.16
2023-05-08T07:34:26.822Z,94831.22
2023-05-08T07:36:28.481Z,94840.78
2023-05-08T07:38:30.147Z,94837.56
2023-05-08T07:40:31.805Z,94835.38
2023-05-08T07:42:47.321Z,94841.28
2023-05-08T07:44:54.955Z,94836.19
2023-05-08T07:46:57.295Z,94829.53
2023-05-08T07:48:58.945Z,94838.53
2023-05-08T07:51:00.507Z,94843.44
2023-05-08T07:53:02.061Z,94844.38
2023-05-08T07:55:04.276Z,94843.84
2023-05-08T07:57:05.979Z,94839.25
2023-05-08T07:59:07.542Z,94845.31
2023-05-08T08:01:09.167Z,94846.38
2023-05-08T08:03:10.792Z,94849.50
2023-05-08T08:05:13.043Z,94836.66
2023-05-08T08:07:14.886Z,94836.22
2023-05-08T08:09:16.517Z,94840.97
2023-05-08T08:11:18.157Z,94835.09
2023-05-08T08:13:19.826Z,94841.63
2023-05-08T08:15:21.440Z,94835.66
2023-05-08T08:17:23.341Z,94846.50
2023-05-08T08:19:25.067Z,94843.91
2023-05-08T08:21:27.218Z,94840.59
2023-05-08T08:23:28.793Z,94845.94
2023-05-08T08:25:30.471Z,94834.88
2023-05-08T08:27:32.292Z,94832.44
2023-05-08T08:29:34.075Z,94843.88
2023-05-08T08:31:35.899Z,94828.56
2023-05-08T08:33:37.594Z,94825.47
2023-05-08T08:35:39.223Z,94817.09
2023-05-08T08:37:40.927Z,94813.53
2023-05-08T08:39:42.516Z,94820.31
2023-05-08T08:41:44.729Z,94802.53
2023-05-08T08:43:46.434Z,94808.25
2023-05-08T08:45:48.467Z,94809.97
2023-05-08T08:47:52.450Z,94807.91
2023-05-08T08:49:55.161Z,94808.13
2023-05-08T08:51:59.793Z,94804.22
2023-05-08T08:54:09.484Z,94799.72
2023-05-08T08:56:11.641Z,94796.81
2023-05-08T08:58:39.238Z,94791.56
2023-05-08T09:00:41.686Z,94791.34
2023-05-08T09:02:43.510Z,94786.88
2023-05-08T09:04:45.469Z,94781.28
2023-05-08T09:06:47.218Z,94779.97
2023-05-08T09:08:49.463Z,94771.38
2023-05-08T09:10:52.562Z,94769.94
2023-05-08T09:12:54.407Z,94774.59
2023-05-08T09:14:56.006Z,94767.03
2023-05-08T09:16:57.952Z,94758.53
2023-05-08T09:18:59.555Z,94755.22
2023-05-08T09:21:01.911Z,94756.78
2023-05-08T09:23:03.667Z,94746.28
2023-05-08T09:25:06.365Z,94745.16
2023-05-08T09:27:21.414Z,94740.94
2023-05-08T09:29:23.055Z,94740.63
2023-05-08T09:31:35.179Z,94746.41
2023-05-08T09:33:44.098Z,94757.47
2023-05-08T09:35:48.451Z,94753.25
2023-05-08T09:37:50.082Z,94754.34
2023-05-08T09:39:51.638Z,94760.53
2023-05-08T09:42:03.860Z,94763.38
2023-05-08T09:44:07.207Z,94762.97
2023-05-08T09:46:23.165Z,94769.53
2023-05-08T09:48:38.442Z,94769.91
2023-05-08T09:50:41.552Z,94770.13
2023-05-08T09:52:49.386Z,94762.56
2023-05-08T09:55:00.380Z,94772.19
2023-05-08T09:57:12.099Z,94770.75
2023-05-08T09:59:27.954Z,94765.84
2023-05-08T10:01:35.670Z,94766.59
2023-05-08T10:03:48.321Z,94768.88
2023-05-08T10:05:49.999Z,94759.16
2023-05-08T10:07:52.280Z,94766.66
2023-05-08T10:10:01.788Z,94768.00
2023-05-08T10:12:03.729Z,94769.28
2023-05-08T10:14:05.356Z,94761.03
2023-05-08T10:16:08.234Z,94753.53
2023-05-08T10:18:12.188Z,94753.44
2023-05-08T10:20:14.855Z,94758.53
2023-05-08T10:22:18.744Z,94751.31
2023-05-08T10:24:22.044Z,94743.13
2023-05-08T10:26:28.124Z,94745.59
2023-05-08T10:28:36.549Z,94741.00
2023-05-08T10:30:39.390Z,94741.22
2023-05-08T10:32:44.406Z,94745.91
2023-05-08T10:34:47.479Z,94747.50
2023-05-08T10:36:51.654Z,94738.28
2023-05-08T10:38:55.013Z,94738.22
2023-05-08T10:41:01.346Z,94731.22
2023-05-08T10:43:05.430Z,94732.63
2023-05-08T10:45:08.312Z,94733.72
2023-05-08T10:47:22.904Z,94731.72
2023-05-08T10:49:59.749Z,94721.31
2023-05-08T10:52:41.360Z,94717.03
2023-05-08T10:54:52.112Z,94710.13
2023-05-08T10:57:08.081Z,94726.19
2023-05-08T10:59:20.738Z,94717.06
2023-05-08T11:01:22.331Z,94710.34
2023-05-08T11:03:31.911Z,94725.44
2023-05-08T11:05:48.587Z,94705.28
2023-05-08T11:07:54.810Z,94706.34
2023-05-08T11:10:07.002Z,94699.41
2023-05-08T11:12:23.511Z,94698.72
2023-05-08T11:14:25.780Z,94689.97
2023-05-08T11:16:56.624Z,94681.66
2023-05-08T11:19:17.825Z,94684.22
2023-05-08T11:21:23.753Z,94687.84
2023-05-08T11:23:27.134Z,94677.56
2023-05-08T11:25:46.946Z,94667.50
2023-05-08T11:27:48.486Z,94667.81
2023-05-08T11:30:19.320Z,94658.94
2023-05-08T11:32:21.135Z,94659.44
2023-05-08T11:34:46.036Z,94671.09
2023-05-08T11:37:02.086Z,94654.56
2023-05-08T11:39:12.837Z,94649.56
2023-05-08T11:41:22.285Z,94650.16
2023-05-08T11:43:32.852Z,94640.56
2023-05-08T11:45:35.001Z,94645.78
2023-05-08T11:47:46.187Z,94634.88
2023-05-08T11:49:47.823Z,94632.56
2023-05-08T11:51:58.092Z,94634.88
2023-05-08T11:54:00.996Z,94632.78
2023-05-08T11:56:03.558Z,94623.03
2023-05-08T11:58:12.518Z,94627.94
2023-05-08T12:00:14.847Z,94628.22
2023-05-08T12:02:16.697Z,94626.28
2023-05-08T12:04:18.519Z,94627.09
2023-05-08T12:06:20.340Z,94620.72
2023-05-08T12:08:21.976Z,94619.69
2023-05-08T12:10:23.771Z,94620.59
2023-05-08T12:12:36.913Z,94622.19
2023-05-08T12:14:38.559Z,94615.25
2023-05-08T12:16:40.268Z,94624.88
2023-05-08T12:18:43.303Z,94624.03
2023-05-08T12:20:45.099Z,94612.06
2023-05-08T12:22:51.711Z,94612.34
2023-05-08T12:24:53.405Z,94606.78
2023-05-08T12:26:57.896Z,94623.28
2023-05-08T12:28:59.482Z,94613.84
2023-05-08T12:31:01.648Z,94615.44
2023-05-08T12:33:04.713Z,94621.25
2023-05-08T12:35:10.983Z,94611.69
2023-05-08T12:37:12.647Z,94600.63
2023-05-08T12:39:16.535Z,94605.50
2023-05-08T12:41:24.230Z,94606.09
2023-05-08T12:43:33.788Z,94604.81
2023-05-08T12:45:39.973Z,94603.13
2023-05-08T12:47:41.630Z,94613.28
2023-05-08T12:49:43.265Z,94612.59
2023-05-08T12:51:48.055Z,94606.19
2023-05-08T12:53:50.423Z,94607.91
2023-05-08T12:55:57.029Z,94599.59
2023-05-08T12:58:05.548Z,94604.03
2023-05-08T13:00:07.753Z,94596.81
2023-05-08T13:02:22.569Z,94594.75
2023-05-08T13:04:24.283Z,94591.97
2023-05-08T13:06:26.037Z,94595.09
2023-05-08T13:08:35.528Z,94597.06
2023-05-08T13:10:49.522Z,94594.41
2023-05-08T13:12:51.176Z,94598.44
2023-05-08T13:14:52.792Z,94617.13
2023-05-08T13:16:54.558Z,94612.03
2023-05-08T13:18:56.116Z,94614.94
2023-05-08T13:20:58.257Z,94615.22
2023-05-08T13:22:59.899Z,94616.41
2023-05-08T13:25:01.552Z,94624.78
2023-05-08T13:27:03.225Z,94623.25
2023-05-08T13:29:04.829Z,94629.97
2023-05-08T13:31:06.424Z,94634.31
2023-05-08T13:33:08.225Z,94624.97
2023-05-08T13:35:09.971Z,94639.47
2023-05-08T13:37:11.659Z,94637.03
2023-05-08T13:39:13.190Z,94639.25
2023-05-08T13:41:14.817Z,94642.22
2023-05-08T13:43:16.584Z,94652.03
2023-05-08T13:45:20.923Z,94665.16
2023-05-08T13:47:22.574Z,94653.97
2023-05-08T13:49:27.720Z,94663.59
2023-05-08T13:51:29.349Z,94666.03
2023-05-08T13:53:30.895Z,94661.50
2023-05-08T13:55:32.531Z,94665.31
2023-05-08T13:57:34.456Z,94669.66
2023-05-08T13:59:36.063Z,94671.50
2023-05-08T14:01:37.795Z,94681.56
2023-05-08T14:03:39.585Z,94685.66
2023-05-08T14:05:41.285Z,94685.16
2023-05-08T14:07:43.805Z,94678.84
2023-05-08T14:09:46.153Z,94689.03
2023-05-08T14:11:47.856Z,94693.75
2023-05-08T14:13:49.458Z,94691.91
2023-05-08T14:15:51.097Z,94695.78
2023-05-08T14:17:52.766Z,94713.13
2023-05-08T14:19:54.375Z,94712.31
2023-05-08T14:21:55.989Z,94711.06
2023-05-08T14:23:57.675Z,94720.81
2023-05-08T14:25:59.297Z,94723.06
2023-05-08T14:28:00.880Z,94727.03
2023-05-08T14:30:02.553Z,94728.41
2023-05-08T14:32:04.535Z,94733.31
2023-05-08T14:34:06.154Z,94738.66
2023-05-08T14:36:08.252Z,94730.22
2023-05-08T14:38:13.038Z,94735.09
2023-05-08T14:40:14.679Z,94736.16
2023-05-08T14:42:22.820Z,94743.31
2023-05-08T14:44:25.208Z,94743.69
2023-05-08T14:46:27.097Z,94748.19
2023-05-08T14:48:28.825Z,94753.00
2023-05-08T14:50:30.556Z,94759.50
2023-05-08T14:52:32.198Z,94758.28
2023-05-08T14:54:35.661Z,94758.19
2023-05-08T14:58:59.098Z,94761.38
2023-05-08T15:01:00.851Z,94771.38
2023-05-08T15:03:02.854Z,94767.56
2023-05-08T15:05:11.080Z,94767.38
2023-05-08T15:07:18.880Z,94772.75
2023-05-08T15:09:20.505Z,94772.53
2023-05-08T15:13:29.462Z,94770.09
2023-05-08T15:15:31.103Z,94778.03
2023-05-08T15:17:35.627Z,94776.81
2023-05-08T15:19:37.345Z,94776.66
2023-05-08T15:21:38.884Z,94777.47
2023-05-08T15:23:40.579Z,94777.06
2023-05-08T15:25:42.172Z,94782.56
2023-05-08T15:27:43.812Z,94778.84
2023-05-08T15:29:45.428Z,94781.84
2023-05-08T15:31:47.115Z,94781.94
2023-05-08T15:33:48.890Z,94780.66
2023-05-08T15:35:50.529Z,94776.28
2023-05-08T15:37:52.180Z,94778.91
2023-05-08T15:39:53.755Z,94773.25
2023-05-08T15:41:55.388Z,94781.50
2023-05-08T15:43:56.991Z,94780.47
2023-05-08T15:45:58.566Z,94783.06
2023-05-08T15:48:00.296Z,94788.97
2023-05-08T15:50:01.977Z,94789.56
2023-05-08T15:52:03.654Z,94789.78
2023-05-08T15:54:05.461Z,94783.69
2023-05-08T15:56:07.212Z,94784.06
2023-05-08T15:58:08.809Z,94790.19
2023-05-08T16:00:11.041Z,94784.91
2023-05-08T16:02:12.669Z,94794.44
2023-05-08T16:04:14.392Z,94797.09
2023-05-08T16:06:16.612Z,94791.00
2023-05-08T16:08:18.712Z,94787.75
2023-05-08T16:10:20.401Z,94792.22
2023-05-08T16:12:21.995Z,94800.16
2023-05-08T16:14:23.592Z,94805.88
2023-05-08T16:16:26.699Z,94811.16
2023-05-08T16:18:28.446Z,94810.50
2023-05-08T16:20:30.309Z,94808.47
2023-05-08T16:22:32.399Z,94805.25
2023-05-08T16:24:34.033Z,94814.56
2023-05-08T16:26:35.630Z,94806.28
2023-05-08T16:28:37.251Z,94812.69
2023-05-08T16:30:38.797Z,94802.56
2023-05-08T16:32:40.607Z,94806.63
2023-05-08T16:34:42.854Z,94808.16
2023-05-08T16:36:44.534Z,94811.53
2023-05-08T16:38:46.183Z,94814.97
2023-05-08T16:40:47.818Z,94814.84
2023-05-08T16:42:49.388Z,94813.09
2023-05-08T16:44:51.181Z,94814.09
2023-05-08T16:46:52.927Z,94815.22
2023-05-08T16:48:54.496Z,94813.81
2023-05-08T16:50:57.167Z,94821.47
2023-05-08T16:52:58.999Z,94826.53
2023-05-08T16:55:01.232Z,94829.06
2023-05-08T16:57:02.901Z,94836.75
2023-05-08T16:59:06.679Z,94831.25
2023-05-08T17:01:08.224Z,94840.22
2023-05-08T17:03:09.906Z,94836.19
2023-05-08T17:05:11.785Z,94831.56
2023-05-08T17:07:17.061Z,94831.41
2023-05-08T17:09:18.703Z,94832.84
2023-05-08T17:11:20.317Z,94837.56
2023-05-08T17:13:21.961Z,94838.19
2023-05-08T17:15:23.596Z,94840.66
2023-05-08T17:17:25.285Z,94841.84
2023-05-08T17:19:26.859Z,94848.22
2023-05-08T17:21:30.258Z,94852.50
2023-05-08T17:23:31.875Z,94851.31
2023-05-08T17:25:33.540Z,94853.13
2023-05-08T17:27:36.007Z,94852.13
2023-05-08T17:29:37.583Z,94859.94
2023-05-08T17:31:39.272Z,94873.22
2023-05-08T17:33:40.897Z,94864.03
2023-05-08T17:35:42.701Z,94872.94
2023-05-08T17:37:44.270Z,94874.16
2023-05-08T17:39:46.002Z,94873.31
2023-05-08T17:41:49.521Z,94873.22
2023-05-08T17:43:54.003Z,94875.44
2023-05-08T17:45:55.608Z,94870.97
2023-05-08T17:47:57.244Z,94877.34
2023-05-08T17:49:58.902Z,94873.59
2023-05-08T17:52:00.495Z,94878.16
2023-05-08T17:54:02.266Z,94877.84
2023-05-08T17:56:03.940Z,94874.75
2023-05-08T17:58:05.582Z,94879.56
2023-05-08T18:00:07.913Z,94887.34
2023-05-08T18:02:09.652Z,94890.31
2023-05-08T18:04:11.317Z,94888.53
2023-05-08T18:06:19.033Z,94893.69
2023-05-08T18:08:20.761Z,94905.03
2023-05-08T18:10:22.982Z,94895.94
2023-05-08T18:12:24.542Z,94898.56
2023-05-08T18:14:29.851Z,94904.97
2023-05-08T18:16:31.458Z,94904.03
2023-05-08T18:18:33.155Z,94906.88
2023-05-08T18:20:34.948Z,94906.63
2023-05-08T18:22:36.780Z,94912.72
2023-05-08T18:24:38.417Z,94905.28
2023-05-08T18:26:40.097Z,94906.88
2023-05-08T18:28:41.894Z,94915.81
2023-05-08T18:30:43.859Z,94911.25
2023-05-08T18:32:45.546Z,94915.34
2023-05-08T18:34:47.121Z,94926.16
2023-05-08T18:36:50.524Z,94924.63
2023-05-08T18:38:52.537Z,94924.53
2023-05-08T18:40:54.134Z,94931.09
2023-05-08T18:42:55.754Z,94928.44
2023-05-08T18:44:57.385Z,94938.38
2023-05-08T18:46:59.218Z,94935.53
2023-05-08T18:49:00.951Z,94941.28
2023-05-08T18:51:02.670Z,94940.47
2023-05-08T18:53:04.267Z,94939.81
2023-05-08T18:55:06.329Z,94937.63
2023-05-08T18:57:07.928Z,94941.72
2023-05-08T18:59:09.507Z,94937.63
2023-05-08T19:01:11.183Z,94943.66
2023-05-08T19:03:12.897Z,94937.91
2023-05-08T19:05:14.657Z,94943.50
2023-05-08T19:07:16.231Z,94938.66
2023-05-08T19:09:17.874Z,94945.94
2023-05-08T19:11:19.561Z,94945.03
2023-05-08T19:13:21.233Z,94949.50
2023-05-08T19:15:22.892Z,94953.22
2023-05-08T19:17:24.524Z,94955.19
2023-05-08T19:19:26.115Z,94952.97
2023-05-08T19:21:27.682Z,94958.78
2023-05-08T19:23:29.223Z,94956.22
2023-05-08T19:25:30.887Z,94961.38
2023-05-08T19:27:32.479Z,94967.78
2023-05-08T19:29:35.455Z,94955.72
2023-05-08T19:31:37.242Z,94957.81
2023-05-08T19:33:38.906Z,94969.44
2023-05-08T19:35:40.508Z,94966.47
2023-05-08T19:37:42.133Z,94965.94
2023-05-08T19:39:43.756Z,94969.19
2023-05-08T19:41:45.370Z,94968.41
2023-05-08T19:43:46.963Z,94969.69
2023-05-08T19:45:48.619Z,94972.84
2023-05-08T19:47:50.341Z,94977.72
2023-05-08T19:49:52.050Z,94971.44
2023-05-08T19:51:53.645Z,94970.41
2023-05-08T19:53:55.214Z,94970.41
2023-05-08T19:55:56.775Z,94982.78
2023-05-08T19:57:58.334Z,94978.44
2023-05-08T20:00:00.152Z,94978.16
2023-05-08T20:02:01.880Z,94981.78
2023-05-08T20:04:03.706Z,94981.78
2023-05-08T20:06:05.476Z,94981.78
2023-05-08T20:08:07.143Z,94984.34
2023-05-08T20:10:09.167Z,94980.03
2023-05-08T20:12:10.970Z,94982.94
2023-05-08T20:14:13.019Z,94980.94
2023-05-08T20:16:14.625Z,94974.81
2023-05-08T20:18:16.419Z,94976.44
2023-05-08T20:20:18.151Z,94973.59
2023-05-08T20:22:19.734Z,94980.41
2023-05-08T20:24:21.362Z,94977.41
2023-05-08T20:26:23.502Z,94980.16
2023-05-08T20:28:26.223Z,94978.94
2023-05-08T20:30:27.890Z,94981.81
2023-05-08T20:32:29.579Z,94971.34
2023-05-08T20:34:31.161Z,94973.38
2023-05-08T20:36:32.950Z,94967.69
2023-05-08T20:38:36.541Z,94965.41
2023-05-08T20:40:38.251Z,94962.13
2023-05-08T20:42:43.239Z,94965.13
2023-05-08T20:44:44.868Z,94963.47
2023-05-08T20:46:46.506Z,94961.66
2023-05-08T20:48:48.109Z,94959.66
2023-05-08T20:50:49.736Z,94965.03
2023-05-08T20:52:51.882Z,94970.38
2023-05-08T20:54:53.456Z,94966.66
2023-05-08T20:56:55.055Z,94973.28
2023-05-08T20:58:56.630Z,94972.69
2023-05-08T21:00:58.498Z,94968.50
2023-05-08T21:03:00.608Z,94970.00
2023-05-08T21:05:02.268Z,94967.84
2023-05-08T21:07:03.967Z,94967.66
2023-05-08T21:09:07.085Z,94956.22
2023-05-08T21:11:08.840Z,94962.06
2023-05-08T21:13:10.452Z,94953.44
2023-05-08T21:15:12.246Z,94954.91
2023-05-08T21:17:13.949Z,94948.91
2023-05-08T21:19:17.499Z,94950.84
2023-05-08T21:21:20.037Z,94952.75
2023-05-08T21:23:21.856Z,94957.50
2023-05-08T21:25:23.651Z,94943.91
2023-05-08T21:27:28.320Z,94949.50
2023-05-08T21:29:29.922Z,94945.66
2023-05-08T21:31:32.616Z,94956.22
2023-05-08T21:33:34.261Z,94952.75
2023-05-08T21:35:36.431Z,94957.41
2023-05-08T21:37:38.681Z,94957.22
2023-05-08T21:39:41.263Z,94957.88
2023-05-08T21:41:43.702Z,94954.03
2023-05-08T21:43:45.444Z,94960.13
2023-05-08T21:45:47.007Z,94954.69
2023-05-08T21:47:48.750Z,94952.31
2023-05-08T21:49:50.332Z,94958.88
2023-05-08T21:51:53.052Z,94958.69
2023-05-08T21:53:54.689Z,94953.03
2023-05-08T21:55:56.260Z,94957.84
2023-05-08T21:57:57.834Z,94954.75
2023-05-08T21:59:59.452Z,94954.09
2023-05-08T22:02:01.096Z,94955.97
2023-05-08T22:04:02.788Z,94957.81
2023-05-08T22:06:04.530Z,94952.69
2023-05-08T22:08:06.411Z,94952.69
2023-05-08T22:10:09.428Z,94946.44
2023-05-08T22:12:11.122Z,94951.34
2023-05-08T22:14:12.837Z,94945.66
2023-05-08T22:16:14.459Z,94954.41
2023-05-08T22:18:16.067Z,94948.31
2023-05-08T22:20:18.208Z,94955.31
2023-05-08T22:22:19.759Z,94947.56
2023-05-08T22:24:23.408Z,94950.94
2023-05-08T22:26:25.026Z,94951.25
2023-05-08T22:28:26.840Z,94948.78
2023-05-08T22:30:29.306Z,94951.06
2023-05-08T22:32:31.119Z,94941.44
2023-05-08T22:34:32.769Z,94949.06
2023-05-08T22:36:34.477Z,94950.72
2023-05-08T22:38:36.127Z,94950.13
2023-05-08T22:40:37.931Z,94952.66
2023-05-08T22:42:39.907Z,94945.97
2023-05-08T22:44:41.857Z,94947.94
2023-05-08T22:46:43.620Z,94951.59
2023-05-08T22:48:45.859Z,94949.81
2023-05-08T22:50:47.429Z,94945.88
2023-05-08T22:52:49.010Z,94941.06
2023-05-08T22:54:50.701Z,94952.22
2023-05-08T22:56:52.267Z,94951.63
2023-05-08T22:58:56.589Z,94948.78
2023-05-08T23:00:59.727Z,94946.81
2023-05-08T23:03:01.512Z,94953.97
2023-05-08T23:05:03.943Z,94954.13
2023-05-08T23:07:05.602Z,94948.59
2023-05-08T23:09:07.160Z,94949.88
2023-05-08T23:11:08.780Z,94946.09
2023-05-08T23:13:10.472Z,94951.84
2023-05-08T23:15:12.997Z,94949.31
2023-05-08T23:17:14.834Z,94951.41
2023-05-08T23:19:16.402Z,94949.91
2023-05-08T23:21:17.990Z,94950.34
2023-05-08T23:23:19.569Z,94954.91
2023-05-08T23:25:21.242Z,94950.47
2023-05-08T23:27:22.950Z,94955.91
2023-05-08T23:29:24.577Z,94946.19
2023-05-08T23:31:26.295Z,94939.28
2023-05-08T23:33:28.005Z,94940.09
2023-05-08T23:35:29.599Z,94941.06
2023-05-08T23:37:31.208Z,94941.06
2023-05-08T23:39:37.780Z,94942.34
2023-05-08T23:41:39.414Z,94939.06
2023-05-08T23:43:41.027Z,94940.91
2023-05-08T23:45:42.670Z,94936.25
2023-05-08T23:47:44.259Z,94940.53
2023-05-08T23:49:45.896Z,94930.63
2023-05-08T23:51:47.505Z,94938.09
2023-05-08T23:53:50.161Z,94930.44
2023-05-08T23:55:52.472Z,94919.56
2023-05-08T23:57:54.060Z,94917.91
2023-05-08T23:59:55.653Z,94929.09
